createdAt,value
2023-03-13T00:00:43.999Z,-1.70
2023-03-13T00:01:48.403Z,-1.68
2023-03-13T00:02:51.428Z,-1.69
2023-03-13T00:03:54.959Z,-1.71
2023-03-13T00:04:57.508Z,-1.70
2023-03-13T00:06:00.317Z,-1.77
2023-03-13T00:07:04.925Z,-1.78
2023-03-13T00:08:07.382Z,-1.71
2023-03-13T00:09:12.365Z,-1.63
2023-03-13T00:10:15.203Z,-1.55
2023-03-13T00:11:17.553Z,-1.48
2023-03-13T00:12:20.326Z,-1.46
2023-03-13T00:13:22.926Z,-1.48
2023-03-13T00:14:25.297Z,-1.51
2023-03-13T00:15:27.624Z,-1.54
2023-03-13T00:16:30.679Z,-1.74
2023-03-13T00:17:34.645Z,-1.83
2023-03-13T00:18:37.824Z,-1.81
2023-03-13T00:19:40.224Z,-1.71
2023-03-13T00:20:42.898Z,-1.79
2023-03-13T00:21:45.142Z,-1.73
2023-03-13T00:22:47.641Z,-1.63
2023-03-13T00:23:51.101Z,-1.55
2023-03-13T00:24:53.422Z,-1.57
2023-03-13T00:26:00.786Z,-1.65
2023-03-13T00:27:05.381Z,-1.66
2023-03-13T00:28:07.833Z,-1.53
2023-03-13T00:29:10.247Z,-1.49
2023-03-13T00:30:14.478Z,-1.61
2023-03-13T00:31:20.577Z,-1.61
2023-03-13T00:32:25.059Z,-1.53
2023-03-13T00:33:27.767Z,-1.56
2023-03-13T00:34:30.598Z,-1.63
2023-03-13T00:35:34.629Z,-1.68
2023-03-13T00:36:37.333Z,-1.60
2023-03-13T00:37:39.674Z,-1.56
2023-03-13T00:38:41.945Z,-1.57
2023-03-13T00:39:44.513Z,-1.66
2023-03-13T00:40:47.096Z,-1.68
2023-03-13T00:41:50.240Z,-1.58
2023-03-13T00:42:53.536Z,-1.52
2023-03-13T00:43:56.248Z,-1.51
2023-03-13T00:44:58.478Z,-1.58
2023-03-13T00:46:02.664Z,-1.58
2023-03-13T00:47:06.484Z,-1.53
2023-03-13T00:48:08.988Z,-1.63
2023-03-13T00:49:11.209Z,-1.83
2023-03-13T00:50:15.058Z,-1.68
2023-03-13T00:51:19.482Z,-1.70
2023-03-13T00:52:24.426Z,-1.84
2023-03-13T00:53:27.524Z,-1.88
2023-03-13T00:54:30.039Z,-1.87
2023-03-13T00:55:32.551Z,-1.89
2023-03-13T00:56:35.019Z,-1.82
2023-03-13T00:57:38.026Z,-1.75
2023-03-13T00:58:43.363Z,-1.72
2023-03-13T00:59:45.725Z,-1.73
2023-03-13T01:00:50.531Z,-1.72
2023-03-13T01:01:52.996Z,-1.66
2023-03-13T01:02:59.069Z,-1.55
2023-03-13T01:05:15.563Z,-1.45
2023-03-13T01:06:20.952Z,-1.53
2023-03-13T01:07:23.254Z,-1.61
2023-03-13T01:08:27.435Z,-1.62
2023-03-13T01:09:30.105Z,-1.79
2023-03-13T01:10:32.438Z,-1.73
2023-03-13T01:11:38.188Z,-1.69
2023-03-13T01:12:41.575Z,-1.70
2023-03-13T01:13:44.294Z,-1.64
2023-03-13T01:14:49.466Z,-1.61
2023-03-13T01:15:51.637Z,-1.72
2023-03-13T01:16:53.923Z,-1.73
2023-03-13T01:17:56.803Z,-1.71
2023-03-13T01:19:02.209Z,-1.75
2023-03-13T01:20:08.264Z,-1.69
2023-03-13T01:21:12.756Z,-1.72
2023-03-13T01:22:15.629Z,-1.57
2023-03-13T01:23:18.050Z,-1.72
2023-03-13T01:24:20.607Z,-1.74
2023-03-13T01:25:23.765Z,-1.67
2023-03-13T01:26:27.390Z,-1.80
2023-03-13T01:27:31.987Z,-1.79
2023-03-13T01:28:35.333Z,-1.70
2023-03-13T01:29:38.892Z,-1.63
2023-03-13T01:30:41.386Z,-1.77
2023-03-13T01:31:45.020Z,-1.71
2023-03-13T01:32:47.296Z,-1.69
2023-03-13T01:33:53.129Z,-1.74
2023-03-13T01:34:55.509Z,-1.63
2023-03-13T01:36:03.883Z,-1.68
2023-03-13T01:37:06.177Z,-1.59
2023-03-13T01:38:08.710Z,-1.54
2023-03-13T01:39:11.052Z,-1.64
2023-03-13T01:40:13.520Z,-1.77
2023-03-13T01:41:16.469Z,-1.75
2023-03-13T01:42:19.297Z,-1.78
2023-03-13T01:43:26.873Z,-1.74
2023-03-13T01:44:28.510Z,-1.80
2023-03-13T01:46:01.336Z,-1.84
2023-03-13T01:47:06.330Z,-1.71
2023-03-13T01:48:10.578Z,-1.80
2023-03-13T01:49:32.480Z,-1.73
2023-03-13T01:50:43.009Z,-1.71
2023-03-13T01:51:56.833Z,-1.67
2023-03-13T01:52:59.234Z,-1.75
2023-03-13T01:54:30.955Z,-1.79
2023-03-13T01:55:34.018Z,-1.67
2023-03-13T01:56:43.093Z,-1.64
2023-03-13T01:57:50.201Z,-1.77
2023-03-13T01:58:53.525Z,-1.74
2023-03-13T02:00:03.062Z,-1.68
2023-03-13T02:01:08.263Z,-1.68
2023-03-13T02:02:14.917Z,-1.67
2023-03-13T02:03:20.455Z,-1.60
2023-03-13T02:04:24.369Z,-1.57
2023-03-13T02:05:30.522Z,-1.55
2023-03-13T02:06:36.577Z,-1.56
2023-03-13T02:07:43.045Z,-1.59
2023-03-13T02:08:52.298Z,-1.54
2023-03-13T02:09:56.607Z,-1.60
2023-03-13T02:12:16.002Z,-1.65
2023-03-13T02:13:20.267Z,-1.74
2023-03-13T02:14:26.140Z,-1.71
2023-03-13T02:15:30.994Z,-1.79
2023-03-13T02:16:35.851Z,-1.65
2023-03-13T02:17:41.652Z,-1.67
2023-03-13T02:18:44.804Z,-1.62
2023-03-13T02:19:54.106Z,-1.61
2023-03-13T02:21:00.531Z,-1.77
2023-03-13T02:22:23.332Z,-1.74
2023-03-13T02:23:29.390Z,-1.80
2023-03-13T02:24:43.337Z,-1.63
2023-03-13T02:33:32.500Z,-1.52
2023-03-13T02:34:38.995Z,-1.52
2023-03-13T02:35:44.791Z,-1.79
2023-03-13T02:36:48.752Z,-1.81
2023-03-13T02:37:54.881Z,-1.78
2023-03-13T02:39:01.372Z,-1.72
2023-03-13T02:40:09.910Z,-1.69
2023-03-13T02:41:14.243Z,-1.68
2023-03-13T02:42:20.599Z,-1.83
2023-03-13T02:43:32.197Z,-1.83
2023-03-13T02:44:40.192Z,-1.88
2023-03-13T02:45:42.825Z,-1.74
2023-03-13T02:46:49.709Z,-1.73
2023-03-13T02:47:52.674Z,-1.74
2023-03-13T02:48:57.957Z,-1.72
2023-03-13T02:50:01.746Z,-1.79
2023-03-13T02:51:07.999Z,-1.69
2023-03-13T02:52:14.477Z,-1.87
2023-03-13T02:53:17.941Z,-1.71
2023-03-13T02:54:24.039Z,-1.64
2023-03-13T02:55:29.685Z,-1.62
2023-03-13T02:56:35.623Z,-1.61
2023-03-13T02:57:39.197Z,-1.60
2023-03-13T02:58:51.657Z,-1.59
2023-03-13T02:59:48.751Z,-1.56
2023-03-13T03:00:52.971Z,-1.53
2023-03-13T03:01:56.506Z,-1.48
2023-03-13T03:02:58.783Z,-1.40
2023-03-13T03:04:01.155Z,-1.37
2023-03-13T03:05:03.947Z,-1.41
2023-03-13T03:06:07.667Z,-1.33
2023-03-13T03:07:10.690Z,-1.36
2023-03-13T03:08:13.445Z,-1.34
2023-03-13T03:09:16.170Z,-1.34
2023-03-13T03:10:19.208Z,-1.29
2023-03-13T03:11:21.700Z,-1.25
2023-03-13T03:12:25.905Z,-1.42
2023-03-13T03:13:28.559Z,-1.52
2023-03-13T03:14:31.338Z,-1.43
2023-03-13T03:15:33.656Z,-1.42
2023-03-13T03:17:40.391Z,-1.58
2023-03-13T03:18:42.535Z,-1.56
2023-03-13T03:28:11.968Z,-1.81
2023-03-13T03:31:22.018Z,-1.68
2023-03-13T03:32:25.417Z,-1.59
2023-03-13T03:33:29.056Z,-1.54
2023-03-13T03:37:41.506Z,-1.55
2023-03-13T03:40:49.486Z,-1.68
2023-03-13T03:41:52.049Z,-1.62
2023-03-13T03:42:54.523Z,-1.54
2023-03-13T03:43:57.069Z,-1.52
2023-03-13T03:45:01.635Z,-1.53
2023-03-13T03:46:04.602Z,-1.54
2023-03-13T03:47:07.205Z,-1.45
2023-03-13T03:48:11.330Z,-1.35
2023-03-13T03:49:13.604Z,-1.35
2023-03-13T03:50:17.818Z,-1.26
2023-03-13T03:51:22.620Z,-1.30
2023-03-13T03:52:25.382Z,-1.36
2023-03-13T03:53:29.355Z,-1.38
2023-03-13T03:54:32.185Z,-1.46
2023-03-13T03:55:35.221Z,-1.59
2023-03-13T03:56:38.067Z,-1.78
2023-03-13T03:57:40.718Z,-1.89
2023-03-13T03:58:45.003Z,-1.97
2023-03-13T03:59:55.542Z,-2.03
2023-03-13T04:00:58.726Z,-2.03
2023-03-13T04:02:01.831Z,-2.01
2023-03-13T04:03:05.413Z,-2.03
2023-03-13T04:04:08.159Z,-2.06
2023-03-13T04:05:11.050Z,-2.09
2023-03-13T04:06:15.173Z,-2.13
2023-03-13T04:07:18.577Z,-2.15
2023-03-13T04:08:21.263Z,-2.22
2023-03-13T04:09:24.065Z,-2.18
2023-03-13T04:10:28.312Z,-2.24
2023-03-13T04:11:30.972Z,-2.22
2023-03-13T04:12:33.858Z,-2.25
2023-03-13T04:13:36.087Z,-2.29
2023-03-13T04:14:39.182Z,-2.25
2023-03-13T04:15:43.769Z,-2.22
2023-03-13T04:16:46.925Z,-2.23
2023-03-13T04:17:50.393Z,-2.22
2023-03-13T04:18:54.663Z,-2.16
2023-03-13T04:19:57.319Z,-2.14
2023-03-13T04:21:01.912Z,-2.07
2023-03-13T04:22:05.751Z,-1.98
2023-03-13T04:23:08.138Z,-1.94
2023-03-13T04:24:10.761Z,-1.98
2023-03-13T04:25:15.369Z,-2.10
2023-03-13T04:26:18.347Z,-2.21
2023-03-13T04:27:21.353Z,-2.28
2023-03-13T04:28:24.745Z,-2.29
2023-03-13T04:29:27.583Z,-2.31
2023-03-13T04:30:37.808Z,-2.28
2023-03-13T04:31:47.929Z,-2.23
2023-03-13T04:33:01.984Z,-2.32
2023-03-13T04:35:33.222Z,-2.05
2023-03-13T04:36:38.205Z,-2.37
2023-03-13T04:38:02.342Z,-2.43
2023-03-13T04:39:07.077Z,-2.34
2023-03-13T04:40:13.202Z,-2.30
2023-03-13T04:41:32.606Z,-2.47
2023-03-13T04:43:57.059Z,-2.32
2023-03-13T04:45:17.956Z,-2.44
2023-03-13T04:46:35.171Z,-2.42
2023-03-13T04:47:42.502Z,-2.54
2023-03-13T04:49:03.335Z,-2.51
2023-03-13T04:50:08.168Z,-2.53
2023-03-13T04:51:15.254Z,-2.48
2023-03-13T04:52:29.229Z,-2.38
2023-03-13T04:53:43.442Z,-2.35
2023-03-13T04:55:06.643Z,-2.36
2023-03-13T04:56:42.219Z,-2.48
2023-03-13T04:57:33.351Z,-2.61
2023-03-13T04:58:40.292Z,-2.53
2023-03-13T04:59:47.656Z,-2.65
2023-03-13T05:00:53.325Z,-2.64
2023-03-13T05:02:14.308Z,-2.66
2023-03-13T05:03:18.585Z,-2.79
2023-03-13T05:04:25.491Z,-2.71
2023-03-13T05:05:35.806Z,-2.62
2023-03-13T05:06:59.821Z,-2.61
2023-03-13T05:08:05.393Z,-2.77
2023-03-13T05:09:18.789Z,-2.77
2023-03-13T05:10:28.774Z,-2.75
2023-03-13T05:11:40.155Z,-2.73
2023-03-13T05:12:44.901Z,-2.65
2023-03-13T05:13:49.166Z,-2.69
2023-03-13T05:14:53.545Z,-2.66
2023-03-13T05:16:14.629Z,-2.73
2023-03-13T05:17:35.385Z,-2.64
2023-03-13T05:18:39.880Z,-2.62
2023-03-13T05:19:47.488Z,-2.62
2023-03-13T05:21:02.246Z,-2.58
2023-03-13T05:22:06.442Z,-2.47
2023-03-13T05:23:22.410Z,-2.35
2023-03-13T05:24:43.033Z,-2.27
2023-03-13T05:25:53.275Z,-2.18
2023-03-13T05:27:14.354Z,-2.15
2023-03-13T05:28:18.597Z,-2.05
2023-03-13T05:29:40.090Z,-2.05
2023-03-13T05:30:45.399Z,-1.98
2023-03-13T05:31:49.513Z,-1.99
2023-03-13T05:32:59.596Z,-1.98
2023-03-13T05:34:13.217Z,-2.04
2023-03-13T05:35:19.469Z,-2.05
2023-03-13T05:36:24.068Z,-2.01
2023-03-13T05:37:31.645Z,-1.97
2023-03-13T05:39:49.381Z,-1.75
2023-03-13T05:41:08.428Z,-1.81
2023-03-13T05:42:13.069Z,-1.71
2023-03-13T05:43:20.420Z,-1.75
2023-03-13T05:45:38.110Z,-1.62
2023-03-13T05:46:51.048Z,-1.77
2023-03-13T05:48:04.925Z,-1.74
2023-03-13T05:49:25.538Z,-1.72
2023-03-13T05:50:48.723Z,-1.71
2023-03-13T05:51:59.004Z,-1.68
2023-03-13T05:53:19.851Z,-1.64
2023-03-13T05:54:30.521Z,-1.79
2023-03-13T05:55:51.409Z,-1.78
2023-03-13T05:57:17.657Z,-1.70
2023-03-13T05:58:27.703Z,-1.58
2023-03-13T05:59:48.641Z,-1.56
2023-03-13T06:01:12.411Z,-1.50
2023-03-13T06:02:21.203Z,-1.42
2023-03-13T06:03:23.688Z,-1.32
2023-03-13T06:04:29.831Z,-1.22
2023-03-13T06:05:33.578Z,-1.25
2023-03-13T06:06:37.241Z,-1.24
2023-03-13T06:07:41.636Z,-1.14
2023-03-13T06:08:45.103Z,-1.06
2023-03-13T06:09:47.677Z,-1.05
2023-03-13T06:10:50.259Z,-1.05
2023-03-13T06:11:53.016Z,-1.02
2023-03-13T06:12:55.989Z,-0.99
2023-03-13T06:14:00.183Z,-0.94
2023-03-13T06:15:06.722Z,-0.91
2023-03-13T06:16:11.394Z,-0.81
2023-03-13T06:17:21.371Z,-0.90
2023-03-13T06:18:24.838Z,-0.98
2023-03-13T06:19:27.288Z,-0.91
2023-03-13T06:20:30.070Z,-0.84
2023-03-13T06:21:32.321Z,-0.89
2023-03-13T06:22:34.808Z,-0.85
2023-03-13T06:23:38.106Z,-0.81
2023-03-13T06:24:41.069Z,-0.79
2023-03-13T06:25:46.964Z,-0.76
2023-03-13T06:26:50.593Z,-0.76
2023-03-13T06:27:52.963Z,-0.68
2023-03-13T06:28:55.414Z,-0.65
2023-03-13T06:29:57.626Z,-0.54
2023-03-13T06:31:07.142Z,-0.46
2023-03-13T06:32:09.924Z,-0.38
2023-03-13T06:33:14.029Z,-0.52
2023-03-13T06:34:17.044Z,-0.47
2023-03-13T06:35:19.417Z,-0.50
2023-03-13T06:36:23.863Z,-0.49
2023-03-13T06:37:26.171Z,-0.42
2023-03-13T06:38:29.614Z,-0.38
2023-03-13T06:39:31.942Z,-0.33
2023-03-13T06:40:36.611Z,-0.35
2023-03-13T06:41:39.030Z,-0.25
2023-03-13T06:42:41.381Z,-0.13
2023-03-13T06:43:43.900Z,-0.05
2023-03-13T06:44:46.284Z,-0.06
2023-03-13T06:45:48.727Z,-0.09
2023-03-13T06:46:51.019Z,0.01
2023-03-13T06:47:53.526Z,0.08
2023-03-13T06:48:56.906Z,0.07
2023-03-13T06:50:01.420Z,0.14
2023-03-13T06:51:05.232Z,0.08
2023-03-13T06:52:07.999Z,0.00
2023-03-13T06:53:19.426Z,0.04
2023-03-13T06:54:45.298Z,0.07
2023-03-13T06:55:49.450Z,0.05
2023-03-13T06:56:52.260Z,0.11
2023-03-13T06:57:54.771Z,0.28
2023-03-13T06:58:59.536Z,0.39
2023-03-13T07:00:01.986Z,0.36
2023-03-13T07:01:10.068Z,0.36
2023-03-13T07:02:12.862Z,0.29
2023-03-13T07:03:15.245Z,0.31
2023-03-13T07:04:18.369Z,0.30
2023-03-13T07:05:21.098Z,0.29
2023-03-13T07:06:24.383Z,0.35
2023-03-13T07:07:32.222Z,0.37
2023-03-13T07:08:34.589Z,0.35
2023-03-13T07:09:37.290Z,0.42
2023-03-13T07:10:42.880Z,0.44
2023-03-13T07:11:45.778Z,0.57
2023-03-13T07:12:48.470Z,0.77
2023-03-13T07:13:53.935Z,0.74
2023-03-13T07:14:57.943Z,0.78
2023-03-13T07:16:05.046Z,0.74
2023-03-13T07:17:07.566Z,0.56
2023-03-13T07:18:10.080Z,0.70
2023-03-13T07:19:12.868Z,0.82
2023-03-13T07:20:17.652Z,0.74
2023-03-13T07:21:20.162Z,0.70
2023-03-13T07:22:23.062Z,0.74
2023-03-13T07:23:28.519Z,0.70
2023-03-13T07:24:31.730Z,0.74
2023-03-13T07:25:34.941Z,0.81
2023-03-13T07:26:38.007Z,0.81
2023-03-13T07:27:40.504Z,0.81
2023-03-13T07:28:43.380Z,0.79
2023-03-13T07:29:45.739Z,0.75
2023-03-13T07:30:50.119Z,0.77
2023-03-13T07:31:52.782Z,0.78
2023-03-13T07:32:55.758Z,0.87
2023-03-13T07:33:58.156Z,0.92
2023-03-13T07:35:00.307Z,0.80
2023-03-13T07:36:03.905Z,0.87
2023-03-13T07:37:07.606Z,0.89
2023-03-13T07:38:10.973Z,0.92
2023-03-13T07:39:13.530Z,0.92
2023-03-13T07:40:17.528Z,0.86
2023-03-13T07:41:20.913Z,0.89
2023-03-13T07:42:23.377Z,0.97
2023-03-13T07:43:30.106Z,0.95
2023-03-13T07:44:34.129Z,1.03
2023-03-13T07:45:36.730Z,1.07
2023-03-13T07:46:38.892Z,1.06
2023-03-13T07:47:41.526Z,1.05
2023-03-13T07:48:45.449Z,1.05
2023-03-13T07:49:48.191Z,1.10
2023-03-13T07:50:50.853Z,1.16
2023-03-13T07:51:53.085Z,1.13
2023-03-13T07:52:56.311Z,1.18
2023-03-13T07:53:58.783Z,1.21
2023-03-13T07:55:01.546Z,1.30
2023-03-13T07:56:08.051Z,1.30
2023-03-13T07:57:11.339Z,1.38
2023-03-13T07:58:14.139Z,1.39
2023-03-13T07:59:16.417Z,1.43
2023-03-13T08:00:20.480Z,1.50
2023-03-13T08:01:30.509Z,1.52
2023-03-13T08:02:34.450Z,1.64
2023-03-13T08:03:37.717Z,1.70
2023-03-13T08:04:40.382Z,1.74
2023-03-13T08:05:42.914Z,1.75
2023-03-13T08:06:45.396Z,1.84
2023-03-13T08:07:47.743Z,1.77
2023-03-13T08:08:50.889Z,1.72
2023-03-13T08:09:53.276Z,1.77
2023-03-13T08:11:07.709Z,1.77
2023-03-13T08:12:10.285Z,1.84
2023-03-13T08:13:12.792Z,1.91
2023-03-13T08:14:15.735Z,2.01
2023-03-13T08:15:20.975Z,2.13
2023-03-13T08:17:38.168Z,2.42
2023-03-13T08:18:43.155Z,2.36
2023-03-13T08:19:45.436Z,2.40
2023-03-13T08:20:47.901Z,2.42
2023-03-13T08:21:50.643Z,2.33
2023-03-13T08:22:56.193Z,2.42
2023-03-13T08:24:01.893Z,2.50
2023-03-13T08:25:04.924Z,2.55
2023-03-13T08:26:13.346Z,2.67
2023-03-13T08:27:15.730Z,2.65
2023-03-13T08:28:19.799Z,2.64
2023-03-13T08:29:21.926Z,2.68
2023-03-13T08:30:24.153Z,2.81
2023-03-13T08:31:29.253Z,2.80
2023-03-13T08:32:38.024Z,2.75
2023-03-13T08:33:42.829Z,2.81
2023-03-13T08:34:45.410Z,2.80
2023-03-13T08:35:48.013Z,2.79
2023-03-13T08:36:52.245Z,2.86
2023-03-13T08:37:54.618Z,2.96
2023-03-13T08:39:01.380Z,3.14
2023-03-13T08:40:06.335Z,3.21
2023-03-13T08:41:09.443Z,3.16
2023-03-13T08:42:13.832Z,3.25
2023-03-13T08:43:16.388Z,3.36
2023-03-13T08:44:20.147Z,3.41
2023-03-13T08:45:22.481Z,3.42
2023-03-13T08:46:25.636Z,3.47
2023-03-13T08:47:27.896Z,3.55
2023-03-13T08:48:30.214Z,3.63
2023-03-13T08:49:32.630Z,3.63
2023-03-13T08:50:35.727Z,3.83
2023-03-13T08:51:39.927Z,3.83
2023-03-13T08:52:44.491Z,3.90
2023-03-13T08:53:47.417Z,3.82
2023-03-13T08:54:49.756Z,3.62
2023-03-13T08:55:55.208Z,3.63
2023-03-13T08:56:59.226Z,3.58
2023-03-13T08:58:01.670Z,3.71
2023-03-13T08:59:05.026Z,3.53
2023-03-13T09:00:10.768Z,3.55
2023-03-13T09:01:14.779Z,3.55
2023-03-13T09:02:18.941Z,3.46
2023-03-13T09:03:21.388Z,3.40
2023-03-13T09:04:23.785Z,3.41
2023-03-13T09:05:26.043Z,3.52
2023-03-13T09:06:28.295Z,3.47
2023-03-13T09:07:31.626Z,3.54
2023-03-13T09:08:34.907Z,3.55
2023-03-13T09:09:37.105Z,3.58
2023-03-13T09:10:39.808Z,3.53
2023-03-13T09:11:42.184Z,3.58
2023-03-13T09:12:46.417Z,3.62
2023-03-13T09:13:51.168Z,3.68
2023-03-13T09:14:53.600Z,3.71
2023-03-13T09:16:05.768Z,3.76
2023-03-13T09:17:08.198Z,3.77
2023-03-13T09:18:10.982Z,3.81
2023-03-13T09:19:13.996Z,3.81
2023-03-13T09:20:18.452Z,3.68
2023-03-13T09:21:23.704Z,3.68
2023-03-13T09:22:25.968Z,3.79
2023-03-13T09:23:28.325Z,3.96
2023-03-13T09:24:30.974Z,4.13
2023-03-13T09:25:33.224Z,4.20
2023-03-13T09:26:35.825Z,4.23
2023-03-13T09:27:38.281Z,4.27
2023-03-13T09:28:42.821Z,4.43
2023-03-13T09:29:46.114Z,4.52
2023-03-13T09:30:51.007Z,4.47
2023-03-13T09:31:53.463Z,4.65
2023-03-13T09:32:55.637Z,5.06
2023-03-13T09:33:59.048Z,5.30
2023-03-13T09:35:01.550Z,5.27
2023-03-13T09:36:05.006Z,5.48
2023-03-13T09:37:09.347Z,5.51
2023-03-13T09:38:11.631Z,5.51
2023-03-13T09:39:14.269Z,5.53
2023-03-13T09:40:20.361Z,5.91
2023-03-13T09:41:32.883Z,5.91
2023-03-13T09:42:44.839Z,6.11
2023-03-13T09:43:57.074Z,5.88
2023-03-13T09:45:07.248Z,6.19
2023-03-13T09:46:18.024Z,6.93
2023-03-13T09:47:30.179Z,6.47
2023-03-13T09:48:36.393Z,6.15
2023-03-13T09:49:57.822Z,6.03
2023-03-13T09:51:07.971Z,5.66
2023-03-13T09:52:25.776Z,5.55
2023-03-13T09:53:43.808Z,5.43
2023-03-13T09:54:55.358Z,5.48
2023-03-13T09:55:58.156Z,5.97
2023-03-13T09:57:10.068Z,5.70
2023-03-13T09:58:19.421Z,5.80
2023-03-13T09:59:31.380Z,6.19
2023-03-13T10:00:43.632Z,6.23
2023-03-13T10:01:50.108Z,6.01
2023-03-13T10:03:06.515Z,5.67
2023-03-13T10:04:30.939Z,5.75
2023-03-13T10:05:34.744Z,5.52
2023-03-13T10:06:43.931Z,5.67
2023-03-13T10:07:46.592Z,5.74
2023-03-13T10:08:49.387Z,5.40
2023-03-13T10:09:53.276Z,5.53
2023-03-13T10:10:59.350Z,5.68
2023-03-13T10:12:17.241Z,5.62
2023-03-13T10:13:41.606Z,5.86
2023-03-13T10:14:54.635Z,6.12
2023-03-13T10:16:03.180Z,6.14
2023-03-13T10:17:18.002Z,6.19
2023-03-13T10:18:22.724Z,5.96
2023-03-13T10:19:34.692Z,6.01
2023-03-13T10:20:37.377Z,6.03
2023-03-13T10:21:41.693Z,6.14
2023-03-13T10:22:52.311Z,6.00
2023-03-13T10:24:05.462Z,6.32
2023-03-13T10:25:20.659Z,6.25
2023-03-13T10:26:26.735Z,6.32
2023-03-13T10:27:30.065Z,5.74
2023-03-13T10:28:33.448Z,5.80
2023-03-13T10:29:37.737Z,6.16
2023-03-13T10:30:43.875Z,6.18
2023-03-13T10:31:56.520Z,6.18
2023-03-13T10:33:01.069Z,5.97
2023-03-13T10:34:12.531Z,6.31
2023-03-13T10:35:23.576Z,6.58
2023-03-13T10:36:30.525Z,6.18
2023-03-13T10:37:42.516Z,5.98
2023-03-13T10:38:48.727Z,5.64
2023-03-13T10:39:53.182Z,5.59
2023-03-13T10:41:01.681Z,5.70
2023-03-13T10:42:23.482Z,5.86
2023-03-13T10:43:27.609Z,5.83
2023-03-13T10:44:33.887Z,5.82
2023-03-13T10:45:38.805Z,5.75
2023-03-13T10:46:44.607Z,5.57
2023-03-13T10:47:55.815Z,5.60
2023-03-13T10:49:01.991Z,5.52
2023-03-13T10:50:06.155Z,5.49
2023-03-13T10:51:12.319Z,5.58
2023-03-13T10:52:34.243Z,5.63
2023-03-13T10:53:37.127Z,5.73
2023-03-13T10:54:39.548Z,5.76
2023-03-13T10:55:44.089Z,5.83
2023-03-13T10:56:46.716Z,5.78
2023-03-13T10:58:04.974Z,5.72
2023-03-13T10:59:20.774Z,5.70
2023-03-13T11:00:38.388Z,5.83
2023-03-13T11:01:44.642Z,5.81
2023-03-13T11:02:47.693Z,5.94
2023-03-13T11:03:52.915Z,5.87
2023-03-13T11:04:56.857Z,5.82
2023-03-13T11:06:02.800Z,5.99
2023-03-13T11:07:15.700Z,5.85
2023-03-13T11:08:30.207Z,5.82
2023-03-13T11:09:32.913Z,5.83
2023-03-13T11:10:36.642Z,5.87
2023-03-13T11:11:55.503Z,5.81
2023-03-13T11:12:59.060Z,5.73
2023-03-13T11:14:19.668Z,5.74
2023-03-13T11:15:38.011Z,5.92
2023-03-13T11:16:45.251Z,5.75
2023-03-13T11:17:54.948Z,5.78
2023-03-13T11:19:31.856Z,5.72
2023-03-13T11:20:37.808Z,5.75
2023-03-13T11:21:57.910Z,5.96
2023-03-13T11:23:21.140Z,6.13
2023-03-13T11:24:51.417Z,6.31
2023-03-13T11:26:09.857Z,6.39
2023-03-13T11:27:38.511Z,6.44
2023-03-13T11:29:12.112Z,6.45
2023-03-13T11:30:36.378Z,6.30
2023-03-13T11:31:42.186Z,6.07
2023-03-13T11:32:57.512Z,5.89
2023-03-13T11:34:23.388Z,5.81
2023-03-13T11:35:44.796Z,5.76
2023-03-13T11:37:02.867Z,5.75
2023-03-13T11:38:21.102Z,5.73
2023-03-13T11:39:54.210Z,5.70
2023-03-13T11:41:35.511Z,5.79
2023-03-13T11:43:17.770Z,5.99
2023-03-13T11:44:15.922Z,5.92
2023-03-13T11:45:34.433Z,5.83
2023-03-13T11:46:46.452Z,5.89
2023-03-13T11:48:08.888Z,6.07
2023-03-13T11:49:18.073Z,6.25
2023-03-13T11:50:32.796Z,6.25
2023-03-13T11:52:09.099Z,6.41
2023-03-13T11:53:39.305Z,6.41
2023-03-13T11:54:54.533Z,6.50
2023-03-13T11:56:17.528Z,6.57
2023-03-13T11:57:38.720Z,6.45
2023-03-13T11:58:54.098Z,6.54
2023-03-13T12:00:23.057Z,6.43
2023-03-13T12:01:28.983Z,6.35
2023-03-13T12:02:35.146Z,6.45
2023-03-13T12:03:59.875Z,6.40
2023-03-13T12:05:06.837Z,6.36
2023-03-13T12:06:27.649Z,6.48
2023-03-13T12:07:30.584Z,6.59
2023-03-13T12:08:41.844Z,6.63
2023-03-13T12:09:55.530Z,6.66
2023-03-13T12:11:16.649Z,6.71
2023-03-13T12:12:23.104Z,6.75
2023-03-13T12:13:35.183Z,6.90
2023-03-13T12:14:42.149Z,7.03
2023-03-13T12:15:50.864Z,6.93
2023-03-13T12:16:57.343Z,7.06
2023-03-13T12:18:04.131Z,7.21
2023-03-13T12:19:11.215Z,7.35
2023-03-13T12:20:17.505Z,7.33
2023-03-13T12:21:30.079Z,7.19
2023-03-13T12:22:41.803Z,7.40
2023-03-13T12:23:47.881Z,7.56
2023-03-13T12:24:53.858Z,7.79
2023-03-13T12:26:16.457Z,7.65
2023-03-13T12:27:22.412Z,7.70
2023-03-13T12:28:52.556Z,7.53
2023-03-13T12:30:08.472Z,7.21
2023-03-13T12:31:22.968Z,7.02
2023-03-13T12:32:28.949Z,7.17
2023-03-13T12:33:37.639Z,7.42
2023-03-13T12:35:01.004Z,7.39
2023-03-13T12:36:19.432Z,7.41
2023-03-13T12:37:31.354Z,7.36
2023-03-13T12:40:13.650Z,7.42
2023-03-13T12:41:44.438Z,7.08
2023-03-13T12:42:54.145Z,7.19
2023-03-13T12:44:08.357Z,7.46
2023-03-13T12:46:08.139Z,7.51
2023-03-13T12:47:31.016Z,7.59
2023-03-13T12:48:37.855Z,7.43
2023-03-13T12:50:02.442Z,7.50
2023-03-13T12:51:39.196Z,7.51
2023-03-13T12:52:45.130Z,7.55
2023-03-13T12:54:10.797Z,7.45
2023-03-13T12:55:37.060Z,7.40
2023-03-13T12:57:04.986Z,7.32
2023-03-13T12:58:30.752Z,7.38
2023-03-13T12:59:36.667Z,7.37
2023-03-13T13:00:43.693Z,7.26
2023-03-13T13:01:49.673Z,7.29
2023-03-13T13:03:08.357Z,7.18
2023-03-13T13:04:17.514Z,7.16
2023-03-13T13:05:22.676Z,7.38
2023-03-13T13:06:26.872Z,7.63
2023-03-13T13:07:35.224Z,8.17
2023-03-13T13:08:43.934Z,8.24
2023-03-13T13:10:11.280Z,8.27
2023-03-13T13:11:47.703Z,8.04
2023-03-13T13:13:19.852Z,8.22
2023-03-13T13:14:32.089Z,7.79
2023-03-13T13:15:34.906Z,7.86
2023-03-13T13:16:41.401Z,8.09
2023-03-13T13:18:06.284Z,8.05
2023-03-13T13:19:27.131Z,8.09
2023-03-13T13:20:33.347Z,8.36
2023-03-13T13:21:37.426Z,8.72
2023-03-13T13:22:43.371Z,8.69
2023-03-13T13:23:47.680Z,8.72
2023-03-13T13:24:52.449Z,8.68
2023-03-13T13:25:56.236Z,8.78
2023-03-13T13:26:58.740Z,8.81
2023-03-13T13:28:23.009Z,8.85
2023-03-13T13:29:28.839Z,8.83
2023-03-13T13:30:32.381Z,8.74
2023-03-13T13:31:55.112Z,8.67
2023-03-13T13:33:18.033Z,8.69
2023-03-13T13:34:34.025Z,8.59
2023-03-13T13:35:36.891Z,8.58
2023-03-13T13:36:43.397Z,8.56
2023-03-13T13:37:49.338Z,8.32
2023-03-13T13:38:51.581Z,8.35
2023-03-13T13:39:56.912Z,8.31
2023-03-13T13:41:13.367Z,8.31
2023-03-13T13:42:39.844Z,8.27
2023-03-13T13:43:48.161Z,8.21
2023-03-13T13:45:17.290Z,8.35
2023-03-13T13:46:29.772Z,8.34
2023-03-13T13:47:33.779Z,8.41
2023-03-13T13:48:43.923Z,8.57
2023-03-13T13:49:55.554Z,8.62
2023-03-13T13:51:14.432Z,8.74
2023-03-13T13:52:20.142Z,8.62
2023-03-13T13:53:44.677Z,8.28
2023-03-13T13:54:56.208Z,8.57
2023-03-13T13:55:59.242Z,8.58
2023-03-13T13:57:12.322Z,8.40
2023-03-13T13:58:21.306Z,8.42
2023-03-13T13:59:33.423Z,8.21
2023-03-13T14:00:48.499Z,8.31
2023-03-13T14:02:10.356Z,8.52
2023-03-13T14:03:21.570Z,8.76
2023-03-13T14:04:30.268Z,8.74
2023-03-13T14:05:33.368Z,8.71
2023-03-13T14:06:38.523Z,8.71
2023-03-13T14:07:53.998Z,8.74
2023-03-13T14:09:00.410Z,8.62
2023-03-13T14:10:07.394Z,8.71
2023-03-13T14:11:32.732Z,8.67
2023-03-13T14:12:38.578Z,8.44
2023-03-13T14:13:42.512Z,8.52
2023-03-13T14:14:45.595Z,8.50
2023-03-13T14:15:52.385Z,8.34
2023-03-13T14:16:56.864Z,8.54
2023-03-13T14:18:22.752Z,8.67
2023-03-13T14:19:37.698Z,8.59
2023-03-13T14:20:52.962Z,8.39
2023-03-13T14:21:59.681Z,8.38
2023-03-13T14:23:07.402Z,8.19
2023-03-13T14:24:15.502Z,8.24
2023-03-13T14:25:19.891Z,8.10
2023-03-13T14:26:25.876Z,8.08
2023-03-13T14:27:28.629Z,8.08
2023-03-13T14:28:30.721Z,8.07
2023-03-13T14:29:36.479Z,7.98
2023-03-13T14:30:45.620Z,8.06
2023-03-13T14:31:53.955Z,8.30
2023-03-13T14:32:56.611Z,8.07
2023-03-13T14:34:03.701Z,7.82
2023-03-13T14:35:08.975Z,7.74
2023-03-13T14:36:12.011Z,7.65
2023-03-13T14:39:00.606Z,7.73
2023-03-13T14:40:27.780Z,7.70
2023-03-13T14:41:34.108Z,7.97
2023-03-13T14:42:42.852Z,7.73
2023-03-13T14:43:47.402Z,7.40
2023-03-13T14:44:50.604Z,7.19
2023-03-13T14:45:54.141Z,7.10
2023-03-13T14:46:59.980Z,7.04
2023-03-13T14:48:06.196Z,7.13
2023-03-13T14:49:21.023Z,7.28
2023-03-13T14:50:24.701Z,7.29
2023-03-13T14:51:28.659Z,7.58
2023-03-13T14:52:32.557Z,7.72
2023-03-13T14:53:36.193Z,7.60
2023-03-13T14:54:54.017Z,7.64
2023-03-13T14:57:27.108Z,7.81
2023-03-13T14:58:30.191Z,7.74
2023-03-13T14:59:33.532Z,7.61
2023-03-13T15:00:39.589Z,7.47
2023-03-13T15:01:42.170Z,7.34
2023-03-13T15:02:45.022Z,7.38
2023-03-13T15:03:47.405Z,7.43
2023-03-13T15:04:57.384Z,7.52
2023-03-13T15:06:16.388Z,7.67
2023-03-13T15:07:19.878Z,7.71
2023-03-13T15:08:25.688Z,7.65
2023-03-13T15:09:28.157Z,7.67
2023-03-13T15:10:37.717Z,7.65
2023-03-13T15:11:56.672Z,7.74
2023-03-13T15:12:59.463Z,7.88
2023-03-13T15:14:02.421Z,7.79
2023-03-13T15:15:05.416Z,7.79
2023-03-13T15:16:21.096Z,7.84
2023-03-13T15:17:26.196Z,7.79
2023-03-13T15:18:32.612Z,7.78
2023-03-13T15:19:34.775Z,7.51
2023-03-13T15:20:37.734Z,7.46
2023-03-13T15:21:41.127Z,7.68
2023-03-13T15:22:45.915Z,7.63
2023-03-13T15:23:54.298Z,7.62
2023-03-13T15:25:06.957Z,7.69
2023-03-13T15:26:02.861Z,7.67